Time;durP1;ratioP1;P1;durP2;ratioP2;P2;SDS_P1;SDS_P2;PMS_P1;PMS_P2;Temp;Humidity;BMP_temperature;BMP_pressure;BME280_temperature;BME280_humidity;BME280_pressure;Samples;Min_cycle;Max_cycle;Signal;HPM_P1;HPM_P2
2021/12/08 00:00:42;;;;;;;5.43;5.00;;;4.20;99.90;;;;;;5016563;28;20261;-62
2021/12/08 00:03:10;;;;;;;5.83;5.43;;;4.20;99.90;;;;;;4998612;28;20215;-62
2021/12/08 00:05:37;;;;;;;6.67;5.33;;;4.20;99.90;;;;;;5016477;28;20222;-62
2021/12/08 00:08:05;;;;;;;6.33;5.50;;;4.20;99.90;;;;;;5016607;28;20230;-62
2021/12/08 00:13:07;;;;;;;5.47;5.07;;;4.30;99.90;;;;;;5016388;28;20692;-62
2021/12/08 00:15:51;;;;;;;5.50;5.10;;;4.30;99.90;;;;;;4998727;28;20183;-62
2021/12/08 00:18:24;;;;;;;7.40;6.00;;;4.20;99.90;;;;;;5016116;28;20243;-63
2021/12/08 00:20:52;;;;;;;5.60;5.20;;;4.10;99.90;;;;;;5016327;28;20199;-62
2021/12/08 00:23:19;;;;;;;10.43;5.50;;;4.10;99.90;;;;;;5015622;28;20251;-62
2021/12/08 00:25:45;;;;;;;9.97;5.87;;;4.10;99.90;;;;;;5015536;28;20195;-61
2021/12/08 00:28:12;;;;;;;5.70;5.20;;;4.10;99.90;;;;;;5015699;28;20549;-62
2021/12/08 00:30:41;;;;;;;5.87;5.40;;;4.10;99.90;;;;;;5015875;28;20184;-63
2021/12/08 00:33:08;;;;;;;5.87;5.37;;;4.10;99.90;;;;;;5015109;28;20203;-62
2021/12/08 00:35:35;;;;;;;6.07;5.53;;;4.10;99.90;;;;;;4997922;28;20180;-63
2021/12/08 00:38:00;;;;;;;6.77;5.30;;;4.10;99.90;;;;;;5015480;28;20546;-62
2021/12/08 00:40:28;;;;;;;5.83;5.20;;;4.10;99.90;;;;;;5016156;28;20257;-62
2021/12/08 00:42:54;;;;;;;5.70;5.30;;;4.20;99.90;;;;;;5015297;28;20191;-62
2021/12/08 00:45:21;;;;;;;6.80;5.50;;;4.20;99.90;;;;;;5015588;28;20184;-63
2021/12/08 00:47:48;;;;;;;6.23;5.60;;;4.20;99.90;;;;;;5015368;28;20172;-62
2021/12/08 00:50:16;;;;;;;6.07;5.67;;;4.20;99.90;;;;;;4997687;28;20554;-62
2021/12/08 00:52:42;;;;;;;7.27;5.60;;;4.20;99.90;;;;;;5015574;28;20294;-62
2021/12/08 00:55:10;;;;;;;5.90;5.50;;;4.30;99.90;;;;;;5015633;28;20544;-62
2021/12/08 00:57:36;;;;;;;6.43;5.27;;;4.30;99.90;;;;;;4997670;28;20192;-62
2021/12/08 01:00:07;;;;;;;6.67;5.17;;;4.30;99.90;;;;;;5015317;28;20203;-62
2021/12/08 01:02:33;;;;;;;6.67;5.43;;;4.40;99.90;;;;;;5014917;28;20211;-62
2021/12/08 01:05:00;;;;;;;6.07;5.37;;;4.50;99.90;;;;;;5015238;28;20179;-62
2021/12/08 01:07:25;;;;;;;9.90;5.87;;;4.50;99.90;;;;;;5014883;28;20541;-62
2021/12/08 01:09:51;;;;;;;6.20;5.60;;;4.50;99.90;;;;;;5014856;28;20191;-62
2021/12/08 01:12:17;;;;;;;6.03;5.50;;;4.50;99.90;;;;;;4997610;28;20200;-62
2021/12/08 01:14:42;;;;;;;5.93;5.43;;;4.50;99.90;;;;;;5014822;28;20188;-62
2021/12/08 01:17:09;;;;;;;6.87;5.80;;;4.50;99.90;;;;;;5015078;28;20182;-62
2021/12/08 01:19:35;;;;;;;5.90;5.40;;;4.40;99.90;;;;;;5014601;28;20199;-62
2021/12/08 01:22:01;;;;;;;6.07;5.53;;;4.40;99.90;;;;;;5014642;28;20207;-62
2021/12/08 01:24:27;;;;;;;6.07;5.47;;;4.40;99.90;;;;;;5015078;28;20179;-62
2021/12/08 01:26:54;;;;;;;6.60;5.67;;;4.40;99.90;;;;;;5014575;28;20581;-62
2021/12/08 01:29:21;;;;;;;5.43;5.03;;;4.30;99.90;;;;;;5014514;28;20180;-62
2021/12/08 01:31:46;;;;;;;6.60;5.67;;;4.30;99.90;;;;;;5014429;28;20184;-62
2021/12/08 01:34:13;;;;;;;6.37;5.40;;;4.30;99.90;;;;;;5014456;28;20191;-62
2021/12/08 01:36:39;;;;;;;8.60;5.47;;;4.30;99.90;;;;;;5014413;28;20286;-62
2021/12/08 01:39:07;;;;;;;5.47;5.13;;;4.30;99.90;;;;;;5014236;28;20200;-62
2021/12/08 01:41:33;;;;;;;5.67;5.10;;;4.20;99.90;;;;;;5014508;28;20653;-62
2021/12/08 01:46:44;;;;;;;5.67;5.30;;;4.20;99.90;;;;;;5014633;28;20529;-62
2021/12/08 01:49:11;;;;;;;6.00;5.50;;;4.20;99.90;;;;;;5014175;28;20179;-63
2021/12/08 01:51:37;;;;;;;5.80;5.40;;;4.10;99.90;;;;;;5014158;28;20226;-63
2021/12/08 01:54:06;;;;;;;5.70;5.20;;;4.10;99.90;;;;;;4996524;28;20637;-63
2021/12/08 01:56:34;;;;;;;5.77;5.40;;;4.10;99.90;;;;;;5014077;28;20164;-62
2021/12/08 01:59:03;;;;;;;5.67;5.27;;;4.10;99.90;;;;;;5013931;28;20291;-62
2021/12/08 02:01:31;;;;;;;5.70;5.30;;;4.10;99.90;;;;;;5014070;28;20203;-62
2021/12/08 02:04:03;;;;;;;5.70;5.30;;;4.00;99.90;;;;;;5013803;28;20202;-62
2021/12/08 02:06:34;;;;;;;5.43;5.13;;;4.00;99.90;;;;;;5014151;28;20214;-63
2021/12/08 02:09:00;;;;;;;6.53;5.10;;;4.00;99.90;;;;;;5014143;28;20196;-62
2021/12/08 02:11:26;;;;;;;5.80;5.30;;;4.00;99.90;;;;;;5013846;28;20258;-62
2021/12/08 02:13:59;;;;;;;5.80;5.30;;;4.10;99.90;;;;;;5013685;28;20218;-62
2021/12/08 02:16:25;;;;;;;5.30;5.00;;;4.10;99.90;;;;;;5014261;28;20252;-63
2021/12/08 02:18:52;;;;;;;6.93;5.47;;;4.10;99.90;;;;;;5013712;28;20262;-62
2021/12/08 02:21:26;;;;;;;5.37;5.07;;;4.10;99.90;;;;;;5013638;28;20180;-62
2021/12/08 02:23:54;;;;;;;5.47;5.07;;;4.10;99.90;;;;;;5013553;28;20238;-63
2021/12/08 02:26:20;;;;;;;5.60;5.20;;;4.10;99.90;;;;;;5013553;28;20176;-62
2021/12/08 02:28:46;;;;;;;5.87;5.37;;;4.10;99.90;;;;;;5013545;28;20176;-62
2021/12/08 02:31:15;;;;;;;5.10;4.80;;;4.10;99.90;;;;;;5013812;28;20189;-62
2021/12/08 02:50:06;;;;;;;5.10;4.77;;;4.40;99.90;;;;;;5013851;28;20246;-62
2021/12/08 02:52:32;;;;;;;5.80;5.30;;;4.30;99.90;;;;;;5013287;28;20247;-62
2021/12/08 02:55:05;;;;;;;5.50;5.10;;;4.40;99.90;;;;;;4995612;28;20238;-63
2021/12/08 02:57:31;;;;;;;5.37;4.90;;;4.40;99.90;;;;;;5017173;28;20182;-62
2021/12/08 02:59:56;;;;;;;5.20;4.90;;;4.40;99.90;;;;;;5017330;28;20199;-62
2021/12/08 03:02:23;;;;;;;5.17;4.87;;;4.40;99.90;;;;;;5017294;28;20306;-63
2021/12/08 03:04:49;;;;;;;5.90;5.50;;;4.50;99.90;;;;;;5017532;28;20172;-61
2021/12/08 03:07:14;;;;;;;5.23;4.93;;;4.50;99.90;;;;;;5017231;28;20210;-63
2021/12/08 03:09:40;;;;;;;5.57;5.13;;;4.50;99.90;;;;;;5017191;28;20226;-62
2021/12/08 03:12:06;;;;;;;5.80;5.40;;;4.50;99.90;;;;;;5017601;28;20203;-64
2021/12/08 03:14:32;;;;;;;5.70;5.20;;;4.50;99.90;;;;;;4999399;28;20246;-62
2021/12/08 03:17:03;;;;;;;5.27;4.90;;;4.50;99.90;;;;;;5016974;28;20183;-62
2021/12/08 03:19:30;;;;;;;5.67;5.20;;;4.50;99.90;;;;;;4999353;28;20195;-62
2021/12/08 03:21:56;;;;;;;5.60;5.20;;;4.60;99.90;;;;;;5017459;28;20215;-63
2021/12/08 03:24:30;;;;;;;5.40;5.10;;;4.60;99.90;;;;;;5017578;28;20157;-62
2021/12/08 03:32:16;;;;;;;5.97;5.57;;;4.70;99.90;;;;;;5017017;28;20199;-63
2021/12/08 03:34:52;;;;;;;6.00;5.50;;;4.70;99.90;;;;;;5017005;28;20212;-62
2021/12/08 03:37:26;;;;;;;5.63;5.23;;;4.80;99.90;;;;;;5016735;28;20234;-62
2021/12/08 03:39:53;;;;;;;5.73;5.33;;;4.70;99.90;;;;;;5016635;28;20198;-63
2021/12/08 03:42:23;;;;;;;5.93;5.30;;;4.80;99.90;;;;;;5016706;28;20215;-62
2021/12/08 03:44:51;;;;;;;5.63;5.23;;;4.80;99.90;;;;;;5016852;28;20160;-62
2021/12/08 03:47:25;;;;;;;6.17;5.70;;;4.80;99.90;;;;;;4998826;28;20183;-63
2021/12/08 03:49:50;;;;;;;6.07;5.47;;;4.80;99.90;;;;;;5016566;28;20188;-63
2021/12/08 03:52:16;;;;;;;6.17;5.53;;;4.80;99.90;;;;;;5016348;28;20210;-63
2021/12/08 03:54:42;;;;;;;6.00;5.50;;;4.90;99.90;;;;;;5016690;28;20348;-63
2021/12/08 03:57:08;;;;;;;5.97;5.40;;;4.90;99.90;;;;;;5016491;28;20274;-63
2021/12/08 03:59:34;;;;;;;5.93;5.53;;;4.90;99.90;;;;;;5016146;28;20260;-63
2021/12/08 04:01:59;;;;;;;6.47;5.87;;;4.90;99.90;;;;;;5016373;28;20214;-66
2021/12/08 04:04:28;;;;;;;6.30;5.73;;;4.90;99.90;;;;;;5016063;28;20203;-62
2021/12/08 04:06:56;;;;;;;5.90;5.40;;;4.90;99.90;;;;;;5016114;28;20222;-62
2021/12/08 04:09:32;;;;;;;6.40;5.33;;;5.00;99.90;;;;;;5015276;28;20184;-62
2021/12/08 04:11:59;;;;;;;6.47;5.53;;;5.00;99.90;;;;;;5016230;28;20198;-62
2021/12/08 04:14:30;;;;;;;6.43;5.90;;;5.00;99.90;;;;;;5016198;28;20183;-62
2021/12/08 04:17:17;;;;;;;8.07;5.73;;;5.00;99.90;;;;;;5015970;28;20171;-62
2021/12/08 04:19:44;;;;;;;6.10;5.70;;;5.00;99.90;;;;;;5015833;28;20192;-62
2021/12/08 04:22:16;;;;;;;5.80;5.40;;;5.00;99.90;;;;;;5015694;28;20205;-62
2021/12/08 04:24:44;;;;;;;7.17;5.37;;;5.00;99.90;;;;;;5016060;28;20157;-62
2021/12/08 04:27:16;;;;;;;6.40;5.77;;;5.00;99.90;;;;;;4998123;28;20180;-62
2021/12/08 04:29:43;;;;;;;7.43;5.70;;;5.00;99.90;;;;;;5015942;28;20306;-61
2021/12/08 04:32:14;;;;;;;6.00;5.50;;;5.10;99.90;;;;;;5015557;28;20204;-62
2021/12/08 04:34:42;;;;;;;6.63;5.77;;;5.10;99.90;;;;;;5015925;28;20156;-61
2021/12/08 04:37:24;;;;;;;6.73;6.13;;;5.10;99.90;;;;;;5015471;28;20721;-61
2021/12/08 04:42:41;;;;;;;6.90;5.90;;;5.10;99.90;;;;;;5015602;28;20666;-62
2021/12/08 04:45:13;;;;;;;5.93;5.30;;;5.10;99.90;;;;;;5015755;28;20242;-62
2021/12/08 04:50:47;;;;;;;6.43;5.80;;;5.00;99.90;;;;;;4975224;28;20192;-62
2021/12/08 05:09:39;;;;;;;7.10;5.97;;;4.90;99.90;;;;;;5015366;28;20619;-62
2021/12/08 05:12:09;;;;;;;6.10;5.60;;;4.90;99.90;;;;;;5014926;28;20222;-62
2021/12/08 05:14:38;;;;;;;6.93;5.80;;;4.90;99.90;;;;;;5015108;28;20199;-62
2021/12/08 05:17:11;;;;;;;6.03;5.53;;;4.90;99.90;;;;;;5015099;28;20180;-62
2021/12/08 05:19:38;;;;;;;7.13;6.43;;;4.90;99.90;;;;;;4996929;28;20199;-62
2021/12/08 05:22:24;;;;;;;7.03;5.87;;;4.90;99.90;;;;;;4996995;28;20206;-62
2021/12/08 05:24:53;;;;;;;13.07;6.33;;;4.90;99.90;;;;;;5014976;28;20152;-62
2021/12/08 05:27:25;;;;;;;6.03;5.47;;;4.90;99.90;;;;;;4997035;28;20281;-62
2021/12/08 05:30:00;;;;;;;6.53;5.90;;;4.90;99.90;;;;;;5014927;28;20160;-62
2021/12/08 05:32:26;;;;;;;7.00;6.30;;;4.90;99.90;;;;;;4997028;28;20195;-62
2021/12/08 05:34:52;;;;;;;7.13;5.90;;;4.90;99.90;;;;;;5015035;28;20598;-63
2021/12/08 05:37:22;;;;;;;9.20;6.20;;;4.90;99.90;;;;;;5014675;28;20176;-62
2021/12/08 05:39:48;;;;;;;6.20;5.67;;;4.90;99.90;;;;;;5014802;28;20290;-62
2021/12/08 05:42:19;;;;;;;6.37;5.83;;;4.90;99.90;;;;;;5014514;28;20214;-62
2021/12/08 05:44:45;;;;;;;7.73;6.30;;;4.90;99.90;;;;;;5014837;28;20179;-62
2021/12/08 05:47:17;;;;;;;7.07;6.00;;;4.90;99.90;;;;;;5015019;28;20562;-62
2021/12/08 05:49:44;;;;;;;6.53;5.67;;;4.90;99.90;;;;;;5014471;28;20188;-62
2021/12/08 05:52:10;;;;;;;9.70;6.63;;;4.90;99.90;;;;;;5014650;28;20278;-61
2021/12/08 05:54:39;;;;;;;7.77;6.07;;;4.90;99.90;;;;;;5014463;28;20202;-62
2021/12/08 05:57:18;;;;;;;8.83;6.63;;;5.00;99.90;;;;;;4997741;28;20267;-63
2021/12/08 05:59:46;;;;;;;6.67;6.07;;;5.00;99.90;;;;;;5015506;28;20629;-62
2021/12/08 06:02:20;;;;;;;6.73;6.07;;;5.00;99.90;;;;;;5014425;28;20192;-62
2021/12/08 06:04:47;;;;;;;7.23;5.90;;;5.00;99.90;;;;;;5014254;28;20209;-63
2021/12/08 06:07:15;;;;;;;7.97;6.00;;;5.10;99.90;;;;;;5014392;28;20572;-62
2021/12/08 06:09:41;;;;;;;6.30;5.80;;;5.10;99.90;;;;;;5014288;28;20203;-62
2021/12/08 06:12:09;;;;;;;7.57;6.17;;;5.10;99.90;;;;;;5014157;28;20195;-62
2021/12/08 06:14:35;;;;;;;6.07;5.50;;;5.10;99.90;;;;;;5014015;28;20183;-62
2021/12/08 06:17:06;;;;;;;7.47;6.17;;;5.10;99.90;;;;;;5014008;28;20214;-62
2021/12/08 06:19:32;;;;;;;7.80;6.20;;;5.10;99.90;;;;;;5014240;28;20203;-62
2021/12/08 06:21:59;;;;;;;7.10;5.90;;;5.10;99.90;;;;;;5014136;28;20557;-62
2021/12/08 06:24:25;;;;;;;6.13;5.60;;;5.10;99.90;;;;;;5014153;28;20179;-62
2021/12/08 06:26:52;;;;;;;5.93;5.50;;;5.10;99.90;;;;;;5014251;28;20702;-62
2021/12/08 06:29:18;;;;;;;7.20;6.50;;;5.10;99.90;;;;;;5014012;28;20176;-62
2021/12/08 06:31:47;;;;;;;7.40;5.80;;;5.10;99.90;;;;;;5013250;28;20180;-62
2021/12/08 06:34:13;;;;;;;6.57;5.93;;;5.10;99.90;;;;;;5013841;28;20557;-62
2021/12/08 06:36:50;;;;;;;9.13;6.27;;;5.10;99.90;;;;;;4996052;28;20187;-62
2021/12/08 06:39:28;;;;;;;8.50;6.03;;;5.10;99.90;;;;;;5013887;28;20222;-62
2021/12/08 06:41:59;;;;;;;8.70;6.33;;;5.00;99.90;;;;;;5013763;28;20184;-62
2021/12/08 06:44:28;;;;;;;9.03;6.07;;;4.90;99.90;;;;;;5013824;28;20160;-62
2021/12/08 06:46:56;;;;;;;7.03;6.30;;;4.90;99.90;;;;;;5013773;28;20172;-62
2021/12/08 06:49:22;;;;;;;6.43;5.83;;;4.90;99.90;;;;;;4995878;28;20179;-62
2021/12/08 06:51:56;;;;;;;12.60;7.20;;;4.90;99.90;;;;;;5013700;28;20214;-62
2021/12/08 06:54:26;;;;;;;10.97;6.03;;;4.90;99.90;;;;;;5014008;28;20494;-62
2021/12/08 06:57:00;;;;;;;10.53;6.50;;;4.90;99.90;;;;;;5013508;28;20222;-62
2021/12/08 06:59:32;;;;;;;9.37;6.13;;;4.90;99.90;;;;;;4995687;28;20666;-62
2021/12/08 07:02:07;;;;;;;6.27;5.60;;;4.90;99.90;;;;;;5013899;28;20188;-62
2021/12/08 07:04:56;;;;;;;7.47;5.67;;;4.90;99.90;;;;;;5013252;28;20329;-62
2021/12/08 07:07:29;;;;;;;7.23;5.93;;;4.90;99.90;;;;;;5013345;28;20152;-62
2021/12/08 07:10:07;;;;;;;7.50;6.20;;;4.90;99.90;;;;;;5013599;28;20180;-62
2021/12/08 07:12:41;;;;;;;8.27;5.93;;;4.90;99.90;;;;;;4995716;28;20195;-62
2021/12/08 07:15:13;;;;;;;8.03;6.30;;;4.90;99.90;;;;;;5013598;28;20167;-62
2021/12/08 07:17:42;;;;;;;7.63;6.27;;;4.80;99.90;;;;;;5013223;28;20669;-62
2021/12/08 07:22:43;;;;;;;7.07;5.80;;;4.80;99.90;;;;;;5013398;28;20192;-62
2021/12/08 07:25:12;;;;;;;6.83;5.60;;;4.90;99.90;;;;;;5013708;28;20171;-62
2021/12/08 07:27:39;;;;;;;8.57;5.50;;;4.90;99.90;;;;;;5013452;28;20179;-62
2021/12/08 07:30:19;;;;;;;9.37;6.10;;;4.90;99.90;;;;;;4995560;28;20258;-62
2021/12/08 07:32:45;;;;;;;6.67;5.83;;;4.90;99.90;;;;;;5013306;28;20266;-62
2021/12/08 07:35:36;;;;;;;10.13;5.90;;;4.90;99.90;;;;;;5013585;28;20572;-62
2021/12/08 07:38:04;;;;;;;9.07;6.03;;;5.00;99.90;;;;;;5012977;28;20172;-62
2021/12/08 07:40:36;;;;;;;7.40;5.67;;;4.90;99.90;;;;;;5013175;28;20192;-62
2021/12/08 07:43:11;;;;;;;6.27;5.73;;;4.90;99.90;;;;;;5015343;28;20250;-62
2021/12/08 07:45:45;;;;;;;6.40;5.77;;;4.90;99.90;;;;;;5017268;28;20159;-62
2021/12/08 07:48:17;;;;;;;6.33;5.73;;;4.90;99.90;;;;;;4999087;28;20174;-62
2021/12/08 07:51:01;;;;;;;7.63;5.63;;;5.00;99.90;;;;;;5016935;28;20168;-62
2021/12/08 07:53:29;;;;;;;6.57;5.30;;;5.00;99.90;;;;;;5016799;28;20207;-62
2021/12/08 07:56:02;;;;;;;7.63;5.80;;;5.00;99.90;;;;;;5016496;28;20179;-62
2021/12/08 07:58:29;;;;;;;8.10;5.77;;;5.00;99.90;;;;;;5017035;28;20222;-62
2021/12/08 08:01:05;;;;;;;8.87;5.77;;;5.00;99.90;;;;;;5016234;28;20206;-62
2021/12/08 08:03:32;;;;;;;8.50;6.13;;;5.10;99.90;;;;;;5016226;28;20215;-62
2021/12/08 08:06:02;;;;;;;6.10;5.50;;;5.20;99.90;;;;;;5016277;28;20172;-62
2021/12/08 08:08:31;;;;;;;9.80;6.13;;;5.30;99.90;;;;;;5016321;28;20198;-62
2021/12/08 08:11:18;;;;;;;6.70;5.47;;;5.30;99.90;;;;;;5016296;28;20172;-62
2021/12/08 08:13:44;;;;;;;8.43;5.57;;;5.40;99.90;;;;;;5016484;28;20203;-62
2021/12/08 08:16:14;;;;;;;6.43;5.60;;;5.40;99.90;;;;;;4998787;28;20180;-62
2021/12/08 08:18:46;;;;;;;6.33;5.70;;;5.40;99.90;;;;;;5016697;28;20167;-62
2021/12/08 08:21:17;;;;;;;7.50;5.60;;;5.40;99.90;;;;;;4998483;28;20183;-62
2021/12/08 08:23:44;;;;;;;6.43;5.40;;;5.50;99.90;;;;;;5015958;28;20218;-62
2021/12/08 08:26:11;;;;;;;6.03;5.47;;;5.50;99.90;;;;;;5016387;28;20549;-62
2021/12/08 08:28:38;;;;;;;6.63;5.43;;;5.50;99.90;;;;;;5015924;28;20654;-62
2021/12/08 08:31:09;;;;;;;7.53;5.97;;;5.50;99.90;;;;;;5016126;28;20206;-62
2021/12/08 08:33:38;;;;;;;10.30;6.00;;;5.50;99.90;;;;;;4998920;28;20207;-62
2021/12/08 08:36:09;;;;;;;7.37;5.63;;;5.50;99.90;;;;;;5016005;28;20180;-62
2021/12/08 08:38:40;;;;;;;8.83;5.77;;;5.50;99.90;;;;;;5016192;28;20164;-62
2021/12/08 08:41:19;;;;;;;9.23;5.43;;;5.50;99.90;;;;;;5015706;28;20192;-63
2021/12/08 08:43:47;;;;;;;5.87;5.33;;;5.50;99.90;;;;;;5016244;28;20563;-63
2021/12/08 08:46:20;;;;;;;12.50;5.03;;;5.50;99.90;;;;;;5015870;28;20631;-63
2021/12/08 08:48:51;;;;;;;8.27;5.33;;;5.50;99.90;;;;;;5015843;28;20156;-63
2021/12/08 08:51:25;;;;;;;9.83;5.63;;;5.50;99.90;;;;;;5015883;28;20612;-62
2021/12/08 08:53:53;;;;;;;6.93;5.23;;;5.60;99.90;;;;;;5014878;28;20208;-62
2021/12/08 08:56:23;;;;;;;6.03;5.40;;;5.60;99.90;;;;;;5015403;28;20176;-62
2021/12/08 08:58:53;;;;;;;10.10;5.80;;;5.60;99.90;;;;;;5015299;28;20168;-62
2021/12/08 09:01:30;;;;;;;7.50;5.27;;;5.60;99.90;;;;;;5015600;28;20215;-62
2021/12/08 09:04:04;;;;;;;7.80;5.30;;;5.60;99.90;;;;;;5015237;28;20211;-62
2021/12/08 09:06:34;;;;;;;9.97;5.67;;;5.60;99.90;;;;;;5015526;28;20182;-62
2021/12/08 09:09:05;;;;;;;7.57;5.40;;;5.60;99.90;;;;;;5015195;28;20246;-62
2021/12/08 09:11:39;;;;;;;8.73;5.13;;;5.60;99.90;;;;;;5015381;28;20168;-62
2021/12/08 09:14:15;;;;;;;15.37;5.70;;;5.70;99.90;;;;;;5015255;28;20164;-63
2021/12/08 09:17:07;;;;;;;7.23;5.10;;;5.70;99.90;;;;;;4997465;28;20554;-63
2021/12/08 09:19:44;;;;;;;8.87;5.10;;;5.70;99.90;;;;;;4987266;28;20223;-62
2021/12/08 09:22:34;;;;;;;13.37;5.50;;;5.70;99.90;;;;;;4997343;28;20269;-62
2021/12/08 09:25:13;;;;;;;6.37;5.77;;;5.80;99.90;;;;;;5014270;28;20200;-62
2021/12/08 09:27:48;;;;;;;8.87;5.37;;;5.80;99.90;;;;;;5014829;28;20218;-62
2021/12/08 09:30:25;;;;;;;8.63;5.30;;;5.80;99.90;;;;;;5015304;28;20220;-62
2021/12/08 09:33:01;;;;;;;7.50;4.93;;;5.80;99.90;;;;;;4997074;28;20214;-62
2021/12/08 09:35:49;;;;;;;9.60;5.27;;;5.80;99.90;;;;;;5014940;28;20156;-62
2021/12/08 09:38:24;;;;;;;6.30;5.63;;;5.90;99.90;;;;;;5014853;28;20168;-62
2021/12/08 09:41:19;;;;;;;8.10;5.00;;;5.90;99.90;;;;;;5015135;28;20618;-63
2021/12/08 09:43:50;;;;;;;9.70;5.33;;;6.00;99.90;;;;;;5012443;28;20266;-63
2021/12/08 09:46:20;;;;;;;9.13;5.13;;;6.00;99.90;;;;;;5014574;28;20239;-62
2021/12/08 09:48:47;;;;;;;6.67;4.90;;;6.00;99.90;;;;;;5015109;28;20194;-63
2021/12/08 09:51:18;;;;;;;8.70;5.00;;;6.00;99.90;;;;;;5014506;28;20258;-63
2021/12/08 09:53:46;;;;;;;6.07;5.07;;;6.00;99.90;;;;;;5014570;28;20200;-62
2021/12/08 09:56:12;;;;;;;11.87;5.23;;;6.00;99.90;;;;;;4996634;28;20196;-62
2021/12/08 09:58:39;;;;;;;5.60;4.90;;;6.00;99.90;;;;;;4996640;28;20318;-62
2021/12/08 10:01:06;;;;;;;7.93;5.50;;;6.00;99.90;;;;;;5014346;28;20594;-62
2021/12/08 10:03:33;;;;;;;6.63;5.00;;;6.00;99.90;;;;;;5014078;28;20290;-62
2021/12/08 10:06:01;;;;;;;6.27;5.13;;;6.10;99.90;;;;;;5013389;28;20176;-63
2021/12/08 10:08:28;;;;;;;8.13;5.13;;;6.10;99.90;;;;;;5014067;28;20176;-63
2021/12/08 10:10:55;;;;;;;5.70;4.53;;;6.10;99.90;;;;;;5014006;28;20202;-63
2021/12/08 10:13:21;;;;;;;6.17;4.90;;;6.20;99.90;;;;;;5013940;28;20204;-63
2021/12/08 10:15:48;;;;;;;7.20;4.67;;;6.20;99.90;;;;;;5013949;28;20674;-63
2021/12/08 10:18:14;;;;;;;7.17;5.00;;;6.20;99.90;;;;;;4996263;28;20239;-63
2021/12/08 10:20:47;;;;;;;9.43;5.27;;;6.20;99.90;;;;;;5013723;28;20250;-63
2021/12/08 10:23:34;;;;;;;8.57;5.47;;;6.20;99.90;;;;;;4996153;28;20196;-63
2021/12/08 10:26:07;;;;;;;5.90;5.10;;;6.30;99.90;;;;;;5013834;28;20211;-62
2021/12/08 10:28:38;;;;;;;10.07;5.23;;;6.30;99.90;;;;;;5014287;28;20255;-62
2021/12/08 10:31:15;;;;;;;7.90;5.40;;;6.20;99.90;;;;;;5014266;28;20164;-62
2021/12/08 10:34:06;;;;;;;8.77;5.17;;;6.20;99.90;;;;;;5014251;28;20207;-63
2021/12/08 10:36:45;;;;;;;7.27;5.20;;;6.20;99.90;;;;;;5014261;28;20160;-62
2021/12/08 10:39:13;;;;;;;8.60;5.40;;;6.20;99.90;;;;;;5013563;28;20697;-62
2021/12/08 10:42:02;;;;;;;8.60;5.20;;;6.20;99.90;;;;;;5013484;28;20259;-62
2021/12/08 10:44:40;;;;;;;6.00;5.00;;;6.20;99.90;;;;;;5013836;28;20244;-62
2021/12/08 10:47:08;;;;;;;9.23;4.90;;;6.20;99.90;;;;;;5013926;28;20633;-62
2021/12/08 10:54:49;;;;;;;7.60;4.63;;;6.30;99.90;;;;;;5013530;28;20179;-62
2021/12/08 10:57:23;;;;;;;6.60;5.13;;;6.30;99.90;;;;;;5013451;28;20556;-62
2021/12/08 10:59:51;;;;;;;6.13;4.87;;;6.40;99.90;;;;;;5013678;28;20222;-62
2021/12/08 11:02:36;;;;;;;8.23;5.27;;;6.40;99.90;;;;;;5013222;28;20231;-62
2021/12/08 11:05:04;;;;;;;6.73;5.40;;;6.30;99.90;;;;;;5013626;28;20622;-62
2021/12/08 11:07:29;;;;;;;6.60;5.30;;;6.40;99.90;;;;;;5013714;28;20615;-62
2021/12/08 11:09:55;;;;;;;9.70;4.93;;;6.40;99.90;;;;;;5013352;28;20179;-62
2021/12/08 11:12:21;;;;;;;7.93;5.53;;;6.40;99.90;;;;;;5013243;28;20215;-62
2021/12/08 11:14:50;;;;;;;5.37;4.87;;;6.40;99.90;;;;;;5013353;28;20211;-62
2021/12/08 11:17:27;;;;;;;7.00;5.00;;;6.50;99.90;;;;;;5014858;28;20176;-62
2021/12/08 11:20:16;;;;;;;8.70;5.63;;;6.50;99.90;;;;;;5017376;28;20634;-62
2021/12/08 11:22:46;;;;;;;8.60;4.80;;;6.60;99.90;;;;;;5017068;28;20321;-62
2021/12/08 11:25:30;;;;;;;5.10;4.70;;;6.60;99.90;;;;;;5017075;28;20164;-62
2021/12/08 11:27:59;;;;;;;6.03;5.17;;;6.60;99.90;;;;;;5017094;28;20633;-62
2021/12/08 11:30:28;;;;;;;6.30;5.07;;;6.60;99.90;;;;;;5016985;28;20230;-62
2021/12/08 11:33:16;;;;;;;7.97;5.63;;;6.60;99.90;;;;;;4999261;28;20204;-62
2021/12/08 11:35:43;;;;;;;7.90;5.37;;;6.60;99.90;;;;;;5016940;28;20160;-62
2021/12/08 11:38:08;;;;;;;5.60;5.00;;;6.60;99.90;;;;;;5017130;28;20211;-62
2021/12/08 11:40:35;;;;;;;6.93;4.80;;;6.60;99.90;;;;;;5016747;28;20627;-62
2021/12/08 11:43:01;;;;;;;9.90;5.40;;;6.60;99.90;;;;;;5016671;28;20195;-62
2021/12/08 11:45:37;;;;;;;7.10;5.17;;;6.50;99.90;;;;;;5017027;28;20709;-62
2021/12/08 11:48:19;;;;;;;9.83;5.23;;;6.50;99.90;;;;;;5016900;28;20190;-62
2021/12/08 11:50:44;;;;;;;6.43;5.13;;;6.50;99.90;;;;;;5016982;28;20199;-62
2021/12/08 11:53:11;;;;;;;5.13;4.70;;;6.50;99.90;;;;;;5016774;28;20288;-62
2021/12/08 11:55:36;;;;;;;5.77;4.90;;;6.50;99.90;;;;;;5016538;28;20180;-62
2021/12/08 11:58:02;;;;;;;11.17;5.40;;;6.50;99.90;;;;;;5016506;28;20187;-62
2021/12/08 12:00:31;;;;;;;9.90;4.97;;;6.50;99.90;;;;;;5016402;28;20204;-62
2021/12/08 12:03:05;;;;;;;6.17;5.50;;;6.50;99.90;;;;;;5016196;28;20219;-62
2021/12/08 12:05:49;;;;;;;5.60;5.10;;;6.60;99.90;;;;;;4998708;28;20172;-62
2021/12/08 12:08:20;;;;;;;5.50;5.00;;;6.60;99.90;;;;;;5016404;28;20168;-63
2021/12/08 12:10:49;;;;;;;6.13;4.70;;;6.70;99.90;;;;;;5019506;28;20168;-62
2021/12/08 12:13:16;;;;;;;6.57;5.03;;;6.70;99.90;;;;;;5018865;28;20230;-63
2021/12/08 12:15:47;;;;;;;5.40;4.47;;;6.80;99.90;;;;;;5016325;28;20646;-63
2021/12/08 12:18:19;;;;;;;6.20;4.97;;;6.90;99.90;;;;;;5016606;28;20164;-64
2021/12/08 12:21:05;;;;;;;10.53;5.63;;;6.90;99.90;;;;;;4985192;28;20207;-62
2021/12/08 12:23:46;;;;;;;7.20;5.57;;;7.00;99.90;;;;;;5020306;28;20192;-65
2021/12/08 12:26:31;;;;;;;11.80;5.70;;;7.00;99.90;;;;;;5018519;28;20160;-64
2021/12/08 12:29:15;;;;;;;9.00;5.00;;;7.10;99.90;;;;;;5018657;28;20175;-63
2021/12/08 12:31:54;;;;;;;5.30;4.90;;;7.10;99.90;;;;;;5019142;28;20187;-62
2021/12/08 12:34:40;;;;;;;7.37;4.87;;;7.10;99.90;;;;;;5018672;28;20156;-65
2021/12/08 12:37:33;;;;;;;6.10;5.20;;;7.00;99.90;;;;;;5016174;28;20180;-61
2021/12/08 12:40:00;;;;;;;10.60;5.20;;;7.10;99.90;;;;;;5019303;28;20290;-61
2021/12/08 12:42:27;;;;;;;5.67;5.10;;;7.00;99.90;;;;;;5018221;28;20195;-62
2021/12/08 12:45:07;;;;;;;7.80;4.70;;;7.00;99.90;;;;;;5016537;28;20176;-64
2021/12/08 12:47:34;;;;;;;6.53;4.80;;;7.00;99.90;;;;;;5020516;28;20160;-62
2021/12/08 12:50:03;;;;;;;9.53;4.97;;;7.00;99.90;;;;;;5018070;28;20207;-64
2021/12/08 12:52:36;;;;;;;12.07;5.13;;;7.00;99.90;;;;;;5015460;28;20725;-64
2021/12/08 12:55:11;;;;;;;7.77;4.93;;;7.00;99.90;;;;;;5017428;28;20179;-62
2021/12/08 12:58:02;;;;;;;6.83;4.70;;;6.90;99.90;;;;;;5017428;28;20166;-64
2021/12/08 13:00:38;;;;;;;7.87;5.37;;;6.90;99.90;;;;;;5015591;28;20689;-63
2021/12/08 13:03:04;;;;;;;7.33;4.67;;;7.00;99.90;;;;;;5015272;28;20627;-62
2021/12/08 13:05:52;;;;;;;7.57;4.97;;;6.90;99.90;;;;;;4997639;28;20180;-63
2021/12/08 13:08:29;;;;;;;9.30;4.90;;;7.00;99.90;;;;;;5015499;28;20157;-63
2021/12/08 13:10:55;;;;;;;6.70;5.30;;;7.00;99.90;;;;;;5015161;28;20163;-63
2021/12/08 13:13:21;;;;;;;8.17;5.20;;;6.90;99.90;;;;;;5015085;28;20294;-63
2021/12/08 13:15:47;;;;;;;7.87;5.27;;;7.00;99.90;;;;;;5015061;28;20204;-63
2021/12/08 13:18:17;;;;;;;6.33;5.00;;;7.00;99.90;;;;;;5014974;28;20176;-63
2021/12/08 13:20:57;;;;;;;10.57;5.53;;;7.00;99.90;;;;;;4997230;28;20207;-63
2021/12/08 13:23:27;;;;;;;9.27;5.10;;;6.90;99.90;;;;;;5015164;28;20245;-63
2021/12/08 13:26:17;;;;;;;9.70;4.77;;;6.90;99.90;;;;;;5016039;28;20157;-63
2021/12/08 13:31:19;;;;;;;10.53;5.10;;;6.90;99.90;;;;;;5015222;28;20267;-63
2021/12/08 13:33:58;;;;;;;8.23;5.50;;;6.90;99.90;;;;;;5015099;28;20194;-63
2021/12/08 13:36:29;;;;;;;6.97;4.90;;;6.90;99.90;;;;;;4997262;28;20555;-63
2021/12/08 13:38:57;;;;;;;5.73;5.07;;;6.90;99.90;;;;;;4997151;28;20200;-63
2021/12/08 13:41:35;;;;;;;7.87;4.83;;;6.80;99.90;;;;;;4996953;28;20183;-63
2021/12/08 13:44:25;;;;;;;8.80;4.77;;;6.90;99.90;;;;;;5014860;28;20164;-63
2021/12/08 13:46:56;;;;;;;5.70;4.53;;;6.80;99.90;;;;;;5015084;28;20175;-63
2021/12/08 13:49:28;;;;;;;6.90;4.47;;;6.80;99.90;;;;;;5014741;28;20632;-63
2021/12/08 13:52:08;;;;;;;6.80;4.90;;;6.80;99.90;;;;;;4996696;28;20187;-63
2021/12/08 13:54:36;;;;;;;7.57;4.57;;;6.80;99.90;;;;;;4996752;28;20180;-63
2021/12/08 13:57:22;;;;;;;9.47;4.63;;;6.80;99.90;;;;;;4996691;28;20214;-63
2021/12/08 13:59:53;;;;;;;6.10;4.60;;;6.70;99.90;;;;;;5014517;28;20665;-63
2021/12/08 14:02:19;;;;;;;6.80;4.60;;;6.70;99.90;;;;;;4996330;28;20195;-63
2021/12/08 14:04:45;;;;;;;6.50;5.40;;;6.60;99.90;;;;;;4996411;28;20226;-63
2021/12/08 14:07:18;;;;;;;10.50;4.80;;;6.60;99.90;;;;;;5013859;28;20213;-63
2021/12/08 14:09:44;;;;;;;5.07;4.50;;;6.60;99.90;;;;;;5014151;28;20172;-63
2021/12/08 14:12:10;;;;;;;7.43;5.00;;;6.60;99.90;;;;;;5014677;28;20187;-63
2021/12/08 14:14:35;;;;;;;8.00;5.00;;;6.60;99.90;;;;;;5014134;28;20599;-63